createdAt,value
2022-11-30T00:01:22.969Z,101220.92
2022-11-30T00:03:55.900Z,101221.27
2022-11-30T00:06:25.641Z,101220.92
2022-11-30T00:08:54.707Z,101220.55
2022-11-30T00:11:24.539Z,101223.43
2022-11-30T00:13:53.393Z,101223.75
2022-11-30T00:16:22.375Z,101226.14
2022-11-30T00:19:04.579Z,101234.17
2022-11-30T00:21:33.008Z,101230.90
2022-11-30T00:24:01.383Z,101232.42
2022-11-30T00:26:29.725Z,101236.17
2022-11-30T00:28:58.159Z,101240.94
2022-11-30T00:31:26.521Z,101243.00
2022-11-30T00:33:54.941Z,101243.02
2022-11-30T00:36:23.824Z,101247.30
2022-11-30T00:38:52.426Z,101249.48
2022-11-30T00:41:21.118Z,101248.45
2022-11-30T00:43:49.582Z,101247.60
2022-11-30T00:46:18.119Z,101254.10
2022-11-30T00:49:08.011Z,101253.41
2022-11-30T00:51:36.765Z,101252.88
2022-11-30T00:54:05.301Z,101259.52
2022-11-30T00:56:33.667Z,101260.73
2022-11-30T00:59:01.944Z,101264.66
2022-11-30T01:01:31.795Z,101264.20
2022-11-30T01:04:00.174Z,101263.77
2022-11-30T01:06:28.939Z,101264.73
2022-11-30T01:08:59.149Z,101268.14
2022-11-30T01:11:30.611Z,101274.92
2022-11-30T01:14:00.467Z,101273.49
2022-11-30T01:16:31.798Z,101277.36
2022-11-30T01:19:00.854Z,101279.60
2022-11-30T01:21:29.867Z,101277.51
2022-11-30T01:23:58.485Z,101278.78
2022-11-30T01:26:26.948Z,101284.69
2022-11-30T01:28:56.528Z,101282.62
2022-11-30T01:31:25.736Z,101286.55
2022-11-30T01:33:55.794Z,101281.27
2022-11-30T01:36:26.410Z,101285.71
2022-11-30T01:38:57.723Z,101287.59
2022-11-30T01:41:29.574Z,101285.19
2022-11-30T01:44:06.787Z,101285.48
2022-11-30T01:46:47.520Z,101285.92
2022-11-30T01:49:47.638Z,101289.30
2022-11-30T01:52:22.806Z,101292.98
2022-11-30T01:55:02.039Z,101297.56
2022-11-30T01:57:41.281Z,101301.76
2022-11-30T02:00:12.549Z,101305.95
2022-11-30T02:02:46.913Z,101309.80
2022-11-30T02:05:17.614Z,101307.86
2022-11-30T02:07:46.288Z,101307.48
2022-11-30T02:10:18.251Z,101313.43
2022-11-30T02:13:14.027Z,101311.64
2022-11-30T02:15:53.151Z,101313.94
2022-11-30T02:18:49.872Z,101313.91
2022-11-30T02:21:40.542Z,101312.33
2022-11-30T02:24:17.797Z,101310.44
2022-11-30T02:27:03.926Z,101310.61
2022-11-30T02:29:38.604Z,101310.73
2022-11-30T02:32:09.742Z,101303.52
2022-11-30T02:34:40.961Z,101304.88
2022-11-30T02:37:12.732Z,101301.96
2022-11-30T02:39:41.203Z,101303.88
2022-11-30T02:42:13.087Z,101301.79
2022-11-30T02:44:45.823Z,101300.02
2022-11-30T02:47:35.278Z,101300.49
2022-11-30T02:50:33.556Z,101305.77
2022-11-30T02:53:02.463Z,101305.84
2022-11-30T02:55:32.251Z,101305.21
2022-11-30T02:58:00.656Z,101306.32
2022-11-30T03:00:29.118Z,101306.41
2022-11-30T03:02:57.510Z,101307.36
2022-11-30T03:05:26.002Z,101307.79
2022-11-30T03:07:54.470Z,101311.15
2022-11-30T03:10:22.856Z,101311.80
2022-11-30T03:12:51.454Z,101312.80
2022-11-30T03:15:19.842Z,101315.52
2022-11-30T03:17:48.137Z,101316.23
2022-11-30T03:20:16.569Z,101324.05
2022-11-30T03:22:44.907Z,101325.63
2022-11-30T03:25:13.226Z,101322.91
2022-11-30T03:27:41.557Z,101324.14
2022-11-30T03:30:10.410Z,101330.48
2022-11-30T03:32:38.749Z,101332.33
2022-11-30T03:35:07.360Z,101332.05
2022-11-30T03:37:35.668Z,101332.28
2022-11-30T03:40:04.783Z,101331.03
2022-11-30T03:42:33.074Z,101336.30
2022-11-30T03:45:01.368Z,101333.88
2022-11-30T03:47:31.764Z,101335.91
2022-11-30T03:50:00.145Z,101335.91
2022-11-30T03:52:28.711Z,101336.31
2022-11-30T03:54:57.035Z,101334.63
2022-11-30T03:57:25.403Z,101335.17
2022-11-30T03:59:53.709Z,101334.00
2022-11-30T04:02:22.029Z,101336.92
2022-11-30T04:04:50.536Z,101335.70
2022-11-30T04:07:19.005Z,101334.12
2022-11-30T04:09:47.390Z,101330.71
2022-11-30T04:12:15.975Z,101337.53
2022-11-30T04:14:44.377Z,101333.05
2022-11-30T04:17:12.788Z,101333.02
2022-11-30T04:19:41.119Z,101335.05
2022-11-30T04:22:09.398Z,101339.27
2022-11-30T04:24:37.707Z,101338.70
2022-11-30T04:27:05.966Z,101341.70
2022-11-30T04:29:34.243Z,101345.89
2022-11-30T04:32:02.581Z,101349.08
2022-11-30T04:34:31.927Z,101349.25
2022-11-30T04:37:00.691Z,101354.17
2022-11-30T04:39:29.172Z,101350.22
2022-11-30T04:41:57.492Z,101350.42
2022-11-30T04:44:25.877Z,101351.88
2022-11-30T04:46:54.372Z,101350.89
2022-11-30T04:49:22.818Z,101350.50
2022-11-30T04:51:51.076Z,101352.79
2022-11-30T04:54:19.351Z,101355.31
2022-11-30T04:56:47.736Z,101362.45
2022-11-30T04:59:16.098Z,101361.73
2022-11-30T05:01:44.498Z,101360.57
2022-11-30T05:04:12.942Z,101365.59
2022-11-30T05:06:41.250Z,101366.98
2022-11-30T05:09:10.408Z,101365.20
2022-11-30T05:11:38.695Z,101370.59
2022-11-30T05:14:07.114Z,101374.02
2022-11-30T05:16:35.417Z,101373.25
2022-11-30T05:19:03.970Z,101376.89
2022-11-30T05:21:32.565Z,101383.31
2022-11-30T05:24:01.285Z,101386.33
2022-11-30T05:26:29.551Z,101384.77
2022-11-30T05:28:57.848Z,101390.05
2022-11-30T05:31:26.273Z,101391.83
2022-11-30T05:33:54.628Z,101398.35
2022-11-30T05:36:23.140Z,101398.23
2022-11-30T05:38:51.355Z,101401.63
2022-11-30T05:41:19.648Z,101406.48
2022-11-30T05:43:50.928Z,101408.20
2022-11-30T05:46:19.441Z,101411.45
2022-11-30T05:48:59.929Z,101408.55
2022-11-30T05:51:28.290Z,101405.91
2022-11-30T05:53:56.634Z,101407.40
2022-11-30T05:56:25.364Z,101412.45
2022-11-30T05:58:53.725Z,101413.23
2022-11-30T06:01:24.568Z,101416.74
2022-11-30T06:03:53.429Z,101416.18
2022-11-30T06:06:22.291Z,101417.30
2022-11-30T06:08:50.727Z,101416.80
2022-11-30T06:11:19.090Z,101416.84
2022-11-30T06:13:47.362Z,101422.51
2022-11-30T06:16:15.762Z,101428.36
2022-11-30T06:18:44.060Z,101427.65
2022-11-30T06:21:12.640Z,101432.55
2022-11-30T06:23:40.995Z,101431.30
2022-11-30T06:26:12.212Z,101431.77
2022-11-30T06:28:45.322Z,101434.30
2022-11-30T06:31:16.981Z,101437.85
2022-11-30T06:33:45.294Z,101437.30
2022-11-30T06:36:13.550Z,101436.75
2022-11-30T06:38:41.727Z,101439.63
2022-11-30T06:41:12.711Z,101438.94
2022-11-30T06:43:41.052Z,101439.96
2022-11-30T06:46:09.827Z,101443.95
2022-11-30T06:48:39.231Z,101448.58
2022-11-30T06:51:11.229Z,101449.14
2022-11-30T06:53:44.766Z,101450.36
2022-11-30T06:56:13.324Z,101456.06
2022-11-30T06:58:42.478Z,101455.75
2022-11-30T07:01:14.039Z,101459.71
2022-11-30T07:03:42.739Z,101464.42
2022-11-30T07:06:14.883Z,101473.55
2022-11-30T07:08:44.047Z,101476.70
2022-11-30T07:11:13.100Z,101475.77
2022-11-30T07:13:41.480Z,101478.77
2022-11-30T07:16:12.019Z,101479.52
2022-11-30T07:18:40.416Z,101488.23
2022-11-30T07:21:10.347Z,101484.85
2022-11-30T07:23:57.435Z,101483.84
2022-11-30T07:26:26.198Z,101485.92
2022-11-30T07:28:55.638Z,101486.95
2022-11-30T07:31:33.074Z,101485.10
2022-11-30T07:34:08.034Z,101483.59
2022-11-30T07:36:37.317Z,101489.07
2022-11-30T07:39:05.990Z,101487.85
2022-11-30T07:41:35.417Z,101483.05
2022-11-30T07:44:08.644Z,101487.55
2022-11-30T07:46:38.477Z,101485.58
2022-11-30T07:49:09.118Z,101484.60
2022-11-30T07:51:38.621Z,101482.88
2022-11-30T07:54:07.383Z,101487.49
2022-11-30T07:56:37.192Z,101489.70
2022-11-30T07:59:06.000Z,101488.84
2022-11-30T08:01:34.949Z,101488.30
2022-11-30T08:04:04.333Z,101487.55
2022-11-30T08:06:33.200Z,101491.05
2022-11-30T08:09:04.381Z,101490.92
2022-11-30T08:11:35.130Z,101489.79
2022-11-30T08:14:04.674Z,101493.83
2022-11-30T08:16:38.475Z,101492.13
2022-11-30T08:19:06.731Z,101496.71
2022-11-30T08:21:35.265Z,101498.39
2022-11-30T08:24:03.682Z,101497.21
2022-11-30T08:26:34.517Z,101502.84
2022-11-30T08:29:02.866Z,101506.63
2022-11-30T08:31:36.337Z,101506.70
2022-11-30T08:34:11.157Z,101508.02
2022-11-30T08:36:40.746Z,101511.11
2022-11-30T08:39:11.847Z,101512.04
2022-11-30T08:41:40.146Z,101509.52
2022-11-30T08:44:08.602Z,101507.58
2022-11-30T08:46:53.669Z,101508.53
2022-11-30T08:49:24.747Z,101508.88
2022-11-30T08:54:46.600Z,101516.39
2022-11-30T08:57:17.813Z,101518.56
2022-11-30T08:59:46.420Z,101526.28
2022-11-30T09:02:19.955Z,101523.39
2022-11-30T09:05:09.443Z,101526.30
2022-11-30T09:07:41.166Z,101535.08
2022-11-30T09:10:09.914Z,101534.17
2022-11-30T09:12:41.951Z,101537.94
2022-11-30T09:15:10.520Z,101537.19
2022-11-30T09:17:38.895Z,101541.45
2022-11-30T09:20:08.136Z,101537.51
2022-11-30T09:22:36.510Z,101538.11
2022-11-30T09:25:05.127Z,101539.77
2022-11-30T09:27:33.603Z,101545.23
2022-11-30T09:30:02.655Z,101545.75
2022-11-30T09:32:39.932Z,101550.47
2022-11-30T09:35:12.809Z,101551.42
2022-11-30T09:37:41.791Z,101549.14
2022-11-30T09:40:12.129Z,101548.74
2022-11-30T09:43:12.600Z,101549.61
2022-11-30T09:45:56.933Z,101543.74
2022-11-30T09:48:27.347Z,101547.70
2022-11-30T09:51:01.134Z,101540.15
2022-11-30T09:53:39.031Z,101538.14
2022-11-30T09:56:20.569Z,101534.42
2022-11-30T09:58:55.866Z,101540.61
2022-11-30T10:01:24.417Z,101535.48
2022-11-30T10:03:52.830Z,101535.70
2022-11-30T10:06:46.030Z,101534.92
2022-11-30T10:09:32.977Z,101530.82
2022-11-30T10:12:20.228Z,101529.35
2022-11-30T10:15:04.602Z,101528.36
2022-11-30T10:18:20.799Z,101522.34
2022-11-30T10:20:49.078Z,101524.48
2022-11-30T10:23:25.826Z,101532.06
2022-11-30T10:25:58.855Z,101527.56
2022-11-30T10:28:51.259Z,101528.41
2022-11-30T10:31:27.086Z,101534.52
2022-11-30T10:34:02.916Z,101533.07
2022-11-30T10:36:40.036Z,101530.27
2022-11-30T10:39:26.807Z,101530.35
2022-11-30T10:42:23.528Z,101534.86
2022-11-30T10:45:04.235Z,101536.55
2022-11-30T10:47:37.472Z,101541.52
2022-11-30T10:50:08.079Z,101541.56
2022-11-30T10:52:45.418Z,101546.92
2022-11-30T10:55:18.959Z,101551.46
2022-11-30T10:57:50.152Z,101549.39
2022-11-30T11:00:18.934Z,101547.58
2022-11-30T11:02:51.996Z,101547.52
2022-11-30T11:05:20.540Z,101545.74
2022-11-30T11:08:02.741Z,101539.08
2022-11-30T11:10:40.552Z,101535.20
2022-11-30T11:13:18.025Z,101535.08
2022-11-30T11:16:00.960Z,101532.05
2022-11-30T11:18:31.658Z,101530.46
2022-11-30T11:21:14.866Z,101527.52
2022-11-30T11:23:44.981Z,101529.19
2022-11-30T11:26:32.032Z,101529.02
2022-11-30T11:29:01.475Z,101529.77
2022-11-30T11:31:41.293Z,101529.48
2022-11-30T11:34:26.730Z,101531.73
2022-11-30T11:37:21.530Z,101528.58
2022-11-30T11:39:59.978Z,101529.17
2022-11-30T11:42:32.467Z,101525.34
2022-11-30T11:45:02.821Z,101528.34
2022-11-30T11:47:45.308Z,101524.30
2022-11-30T11:50:13.580Z,101529.52
2022-11-30T11:52:41.970Z,101528.05
2022-11-30T11:55:17.701Z,101530.79
2022-11-30T11:57:55.147Z,101529.96
2022-11-30T12:00:25.675Z,101530.15
2022-11-30T12:03:23.480Z,101527.11
2022-11-30T12:06:00.726Z,101532.42
2022-11-30T12:08:58.093Z,101534.13
2022-11-30T12:11:46.360Z,101532.54
2022-11-30T12:14:17.166Z,101535.33
2022-11-30T12:17:15.719Z,101542.95
2022-11-30T12:19:56.066Z,101543.14
2022-11-30T12:22:54.822Z,101544.19
2022-11-30T12:25:31.407Z,101546.87
2022-11-30T12:28:17.195Z,101549.70
2022-11-30T12:31:15.283Z,101550.42
2022-11-30T12:34:06.373Z,101544.05
2022-11-30T12:36:58.910Z,101545.70
2022-11-30T12:40:09.676Z,101542.02
2022-11-30T12:42:47.987Z,101544.79
2022-11-30T12:45:40.229Z,101542.10
2022-11-30T12:48:22.213Z,101543.63
2022-11-30T12:51:13.928Z,101544.00
2022-11-30T12:54:09.766Z,101543.25
2022-11-30T12:56:57.196Z,101550.23
2022-11-30T12:59:40.239Z,101547.27
2022-11-30T13:02:42.031Z,101546.88
2022-11-30T13:05:15.884Z,101554.26
2022-11-30T13:07:53.426Z,101555.95
2022-11-30T13:10:28.634Z,101555.21
2022-11-30T13:12:58.903Z,101555.17
2022-11-30T13:15:34.570Z,101557.25
2022-11-30T13:18:04.031Z,101555.51
2022-11-30T13:20:45.589Z,101555.33
2022-11-30T13:23:41.804Z,101550.19
2022-11-30T13:26:37.003Z,101548.84
2022-11-30T13:29:24.892Z,101548.91
2022-11-30T13:32:07.490Z,101544.85
2022-11-30T13:34:35.812Z,101544.32
2022-11-30T13:37:05.938Z,101549.91
2022-11-30T13:39:56.450Z,101547.40
2022-11-30T13:42:42.276Z,101549.31
2022-11-30T13:45:13.268Z,101552.64
2022-11-30T13:47:53.107Z,101555.24
2022-11-30T13:50:30.164Z,101555.31
2022-11-30T13:53:01.966Z,101556.52
2022-11-30T13:55:36.056Z,101561.24
2022-11-30T13:58:07.090Z,101561.08
2022-11-30T14:00:35.539Z,101561.58
2022-11-30T14:03:21.393Z,101566.57
2022-11-30T14:05:54.572Z,101571.73
2022-11-30T14:08:22.935Z,101569.50
2022-11-30T14:10:55.828Z,101571.52
2022-11-30T14:13:30.218Z,101568.19
2022-11-30T14:16:01.494Z,101570.27
2022-11-30T14:18:32.635Z,101570.14
2022-11-30T14:21:15.333Z,101570.20
2022-11-30T14:23:53.384Z,101569.74
2022-11-30T14:26:26.052Z,101572.08
2022-11-30T14:29:16.998Z,101573.76
2022-11-30T14:31:48.092Z,101576.02
2022-11-30T14:34:20.407Z,101573.92
2022-11-30T14:36:53.348Z,101571.68
2022-11-30T14:39:26.170Z,101575.11
2022-11-30T14:41:55.115Z,101572.71
2022-11-30T14:44:23.546Z,101571.65
2022-11-30T14:46:52.190Z,101569.40
2022-11-30T14:49:23.603Z,101572.13
2022-11-30T14:52:02.762Z,101574.84
2022-11-30T14:54:47.402Z,101581.11
2022-11-30T14:57:54.968Z,101581.81
2022-11-30T15:00:23.802Z,101582.55
2022-11-30T15:02:53.259Z,101579.94
2022-11-30T15:05:27.598Z,101580.14
2022-11-30T15:07:56.237Z,101581.56
2022-11-30T15:10:30.208Z,101584.77
2022-11-30T15:12:59.548Z,101585.77
2022-11-30T15:15:30.234Z,101587.77
2022-11-30T15:18:14.847Z,101589.50
2022-11-30T15:20:49.678Z,101589.31
2022-11-30T15:23:18.544Z,101593.96
2022-11-30T15:26:01.467Z,101598.50
2022-11-30T15:28:35.249Z,101597.90
2022-11-30T15:31:13.272Z,101597.07
2022-11-30T15:33:45.710Z,101600.64
2022-11-30T15:36:31.501Z,101601.45
2022-11-30T15:39:08.489Z,101606.00
2022-11-30T15:41:37.089Z,101603.92
2022-11-30T15:44:05.907Z,101607.98
2022-11-30T15:46:41.404Z,101613.95
2022-11-30T15:49:18.726Z,101608.77
2022-11-30T15:51:54.515Z,101609.23
2022-11-30T15:54:49.344Z,101606.98
2022-11-30T15:57:18.080Z,101604.55
2022-11-30T16:00:06.368Z,101606.09
2022-11-30T16:02:37.392Z,101601.34
2022-11-30T16:05:20.359Z,101603.19
2022-11-30T16:07:56.682Z,101600.14
2022-11-30T16:10:30.711Z,101604.30
2022-11-30T16:12:59.184Z,101609.41
2022-11-30T16:15:33.514Z,101607.19
2022-11-30T16:18:07.698Z,101610.64
2022-11-30T16:20:36.471Z,101608.06
2022-11-30T16:23:06.653Z,101611.46
2022-11-30T16:25:36.240Z,101609.42
2022-11-30T16:28:05.948Z,101613.35
2022-11-30T16:30:35.831Z,101609.13
2022-11-30T16:33:04.614Z,101603.17
2022-11-30T16:35:39.383Z,101604.05
2022-11-30T16:38:09.048Z,101607.03
2022-11-30T16:40:39.278Z,101607.04
2022-11-30T16:43:11.423Z,101603.96
2022-11-30T16:45:41.269Z,101601.45
2022-11-30T16:48:10.549Z,101602.02
2022-11-30T16:50:39.699Z,101604.11
2022-11-30T16:53:17.536Z,101603.95
2022-11-30T16:55:46.868Z,101605.02
2022-11-30T16:58:15.486Z,101606.46
2022-11-30T17:00:44.650Z,101605.35
2022-11-30T17:03:21.678Z,101605.94
2022-11-30T17:05:50.181Z,101607.18
2022-11-30T17:08:24.568Z,101600.20
2022-11-30T17:10:54.708Z,101605.50
2022-11-30T17:13:23.219Z,101606.27
2022-11-30T17:15:51.933Z,101604.76
2022-11-30T17:18:23.308Z,101606.47
2022-11-30T17:20:52.292Z,101608.04
2022-11-30T17:23:21.508Z,101614.20
2022-11-30T17:25:50.985Z,101616.71
2022-11-30T17:28:19.946Z,101618.43
2022-11-30T17:30:49.221Z,101619.34
2022-11-30T17:33:18.118Z,101628.02
2022-11-30T17:35:47.488Z,101628.98
2022-11-30T17:38:16.826Z,101633.27
2022-11-30T17:40:46.017Z,101635.18
2022-11-30T17:43:15.839Z,101636.42
2022-11-30T17:45:44.895Z,101637.38
2022-11-30T17:48:14.916Z,101638.71
2022-11-30T17:50:44.528Z,101640.15
2022-11-30T17:53:17.966Z,101641.67
2022-11-30T17:55:47.260Z,101641.10
2022-11-30T17:58:16.124Z,101639.70
2022-11-30T18:00:46.349Z,101639.89
2022-11-30T18:03:15.172Z,101642.30
2022-11-30T18:05:44.564Z,101642.88
2022-11-30T18:08:14.275Z,101642.36
2022-11-30T18:10:46.561Z,101648.23
2022-11-30T18:13:15.536Z,101645.09
2022-11-30T18:15:45.400Z,101649.07
2022-11-30T18:18:13.826Z,101648.01
2022-11-30T18:20:43.267Z,101650.20
2022-11-30T18:23:12.094Z,101651.05
2022-11-30T18:25:43.380Z,101654.35
2022-11-30T18:28:12.503Z,101654.89
2022-11-30T18:30:42.476Z,101656.25
2022-11-30T18:33:11.828Z,101659.85
2022-11-30T18:35:41.354Z,101662.45
2022-11-30T18:38:10.798Z,101665.66
2022-11-30T18:40:40.279Z,101663.59
2022-11-30T18:43:09.941Z,101664.44
2022-11-30T18:45:40.476Z,101662.39
2022-11-30T18:48:11.827Z,101668.53
2022-11-30T18:50:43.293Z,101667.84
2022-11-30T18:53:18.102Z,101669.54
2022-11-30T18:55:48.198Z,101668.35
2022-11-30T18:58:20.090Z,101669.71
2022-11-30T19:00:48.920Z,101672.45
2022-11-30T19:03:18.509Z,101671.94
2022-11-30T19:05:49.091Z,101673.86
2022-11-30T19:08:18.107Z,101680.30
2022-11-30T19:10:47.651Z,101674.51
2022-11-30T19:13:17.609Z,101678.11
2022-11-30T19:15:46.562Z,101685.32
2022-11-30T19:18:23.135Z,101680.22
2022-11-30T19:20:53.990Z,101681.75
2022-11-30T19:23:26.981Z,101684.31
2022-11-30T19:26:02.099Z,101685.17
2022-11-30T19:28:33.116Z,101684.72
2022-11-30T19:31:23.927Z,101683.91
2022-11-30T19:33:55.650Z,101689.14
2022-11-30T19:36:30.884Z,101690.02
2022-11-30T19:39:01.488Z,101693.25
2022-11-30T19:41:31.119Z,101692.75
2022-11-30T19:44:04.753Z,101695.84
2022-11-30T19:46:35.380Z,101694.04
2022-11-30T19:49:19.800Z,101698.89
2022-11-30T19:51:49.775Z,101697.62
2022-11-30T19:54:19.703Z,101700.19
2022-11-30T19:56:50.282Z,101701.20
2022-11-30T19:59:20.085Z,101703.95
2022-11-30T20:01:50.004Z,101701.99
2022-11-30T20:04:19.849Z,101700.52
2022-11-30T20:06:49.538Z,101702.23
2022-11-30T20:09:19.832Z,101704.45
2022-11-30T20:11:54.668Z,101705.14
2022-11-30T20:14:24.510Z,101706.14
2022-11-30T20:16:53.987Z,101705.16
2022-11-30T20:19:26.013Z,101708.46
2022-11-30T20:21:55.471Z,101709.88
2022-11-30T20:24:26.758Z,101713.34
2022-11-30T20:26:57.419Z,101713.86
2022-11-30T20:29:28.070Z,101713.69
2022-11-30T20:32:01.060Z,101711.64
2022-11-30T20:34:43.598Z,101710.60
2022-11-30T20:37:24.199Z,101712.72
2022-11-30T20:39:54.790Z,101714.27
2022-11-30T20:42:25.310Z,101711.03
2022-11-30T20:44:56.428Z,101715.48
2022-11-30T20:47:27.010Z,101714.88
2022-11-30T20:49:58.770Z,101719.92
2022-11-30T20:52:27.900Z,101715.15
2022-11-30T20:54:57.399Z,101716.02
2022-11-30T20:57:26.777Z,101716.77
2022-11-30T20:59:56.438Z,101718.20
2022-11-30T21:02:27.944Z,101718.29
2022-11-30T21:04:56.881Z,101720.48
2022-11-30T21:07:26.209Z,101723.19
2022-11-30T21:09:55.678Z,101722.14
2022-11-30T21:12:25.409Z,101718.55
2022-11-30T21:14:54.671Z,101720.60
2022-11-30T21:17:24.303Z,101715.84
2022-11-30T21:19:51.449Z,101715.23
2022-11-30T21:22:20.172Z,101717.62
2022-11-30T21:24:50.288Z,101716.61
2022-11-30T21:27:20.795Z,101715.80
2022-11-30T21:29:49.774Z,101714.96
2022-11-30T21:32:18.280Z,101714.59
2022-11-30T21:34:46.892Z,101712.17
2022-11-30T21:37:15.475Z,101715.23
2022-11-30T21:39:43.868Z,101712.88
2022-11-30T21:42:12.263Z,101715.64
2022-11-30T21:44:40.576Z,101710.89
2022-11-30T21:47:09.407Z,101710.10
2022-11-30T21:49:38.873Z,101708.91
2022-11-30T21:52:07.242Z,101710.48
2022-11-30T21:54:35.621Z,101712.55
2022-11-30T21:57:04.127Z,101713.58
2022-11-30T21:59:32.418Z,101710.73
2022-11-30T22:02:00.878Z,101711.13
2022-11-30T22:04:29.415Z,101709.24
2022-11-30T22:06:57.873Z,101710.11
2022-11-30T22:09:26.194Z,101709.59
2022-11-30T22:11:55.813Z,101707.71
2022-11-30T22:14:24.544Z,101707.22
2022-11-30T22:16:52.949Z,101705.06
2022-11-30T22:19:21.296Z,101704.04
2022-11-30T22:21:50.467Z,101701.99
2022-11-30T22:24:19.243Z,101697.40
2022-11-30T22:26:49.473Z,101696.02
2022-11-30T22:29:22.983Z,101692.60
2022-11-30T22:31:54.001Z,101696.53
2022-11-30T22:34:22.474Z,101699.37
2022-11-30T22:36:50.716Z,101696.27
2022-11-30T22:39:21.312Z,101692.86
2022-11-30T22:41:55.068Z,101694.24
2022-11-30T22:44:26.018Z,101692.88
2022-11-30T22:46:54.574Z,101689.80
2022-11-30T22:49:26.733Z,101688.48
2022-11-30T22:51:55.397Z,101689.86
2022-11-30T22:54:24.043Z,101691.75
2022-11-30T22:56:53.469Z,101692.79
2022-11-30T22:59:21.889Z,101696.03
2022-11-30T23:01:51.857Z,101696.39
2022-11-30T23:04:23.069Z,101694.99
2022-11-30T23:06:52.037Z,101696.66
2022-11-30T23:09:22.882Z,101695.80
2022-11-30T23:11:52.588Z,101692.84
2022-11-30T23:14:20.997Z,101687.15
2022-11-30T23:16:49.562Z,101687.83
2022-11-30T23:19:18.502Z,101682.55
2022-11-30T23:21:47.214Z,101681.34
2022-11-30T23:24:22.649Z,101679.30
2022-11-30T23:26:51.272Z,101679.64
2022-11-30T23:29:19.752Z,101682.03
2022-11-30T23:31:48.753Z,101682.02
2022-11-30T23:34:21.804Z,101680.42
2022-11-30T23:36:50.684Z,101681.60
2022-11-30T23:39:20.022Z,101682.27
2022-11-30T23:41:48.718Z,101686.21
2022-11-30T23:44:17.285Z,101686.34
2022-11-30T23:46:46.230Z,101683.02
2022-11-30T23:49:14.884Z,101683.35
2022-11-30T23:51:43.467Z,101680.67
2022-11-30T23:54:11.853Z,101681.42
2022-11-30T23:56:40.303Z,101679.39
2022-11-30T23:59:08.831Z,101672.85
